Time;durP1;ratioP1;P1;durP2;ratioP2;P2;SDS_P1;SDS_P2;PMS_P1;PMS_P2;Temp;Humidity;BMP_temperature;BMP_pressure;BME280_temperature;BME280_humidity;BME280_pressure;Samples;Min_cycle;Max_cycle;Signal;HPM_P1;HPM_P2
2023/10/09 00:03:06;;;;;;;27.80;12.48;;;16.10;98.50;;;;;;5056765;28;20044;-77
2023/10/09 00:05:54;;;;;;;25.10;12.70;;;16.10;98.40;;;;;;5072990;28;20056;-77
2023/10/09 00:08:26;;;;;;;30.65;13.13;;;16.10;98.30;;;;;;5058206;28;20029;-78
2023/10/09 00:10:55;;;;;;;23.50;12.18;;;16.00;98.30;;;;;;5055332;28;20040;-78
2023/10/09 00:13:30;;;;;;;24.13;12.65;;;16.00;98.40;;;;;;5055324;28;20049;-77
2023/10/09 00:16:00;;;;;;;27.67;13.30;;;16.10;98.30;;;;;;5056666;28;20025;-78
2023/10/09 00:18:29;;;;;;;23.83;12.23;;;16.10;98.30;;;;;;5039199;28;20025;-77
2023/10/09 00:21:11;;;;;;;24.60;12.25;;;16.00;98.40;;;;;;5039346;28;20072;-77
2023/10/09 00:23:37;;;;;;;23.60;12.57;;;16.00;98.40;;;;;;5057539;28;20029;-78
2023/10/09 00:26:19;;;;;;;27.88;12.90;;;16.00;98.40;;;;;;5055403;28;20025;-78
2023/10/09 00:28:47;;;;;;;26.08;12.35;;;16.00;98.50;;;;;;5055270;28;20047;-77
2023/10/09 00:31:25;;;;;;;22.48;12.30;;;15.90;98.60;;;;;;5072761;28;20020;-78
2023/10/09 00:33:52;;;;;;;25.10;11.90;;;15.90;98.60;;;;;;5040225;28;20079;-77
2023/10/09 00:36:27;;;;;;;27.65;12.98;;;15.90;98.60;;;;;;5038689;28;20021;-78
2023/10/09 00:38:54;;;;;;;23.63;12.63;;;16.00;98.70;;;;;;5055199;28;20047;-77
2023/10/09 00:41:24;;;;;;;24.85;12.65;;;16.00;98.70;;;;;;5055109;28;20033;-77
2023/10/09 00:43:51;;;;;;;26.88;12.18;;;16.00;98.60;;;;;;5058958;28;20403;-78
2023/10/09 00:48:49;;;;;;;28.48;12.68;;;16.10;98.80;;;;;;5076477;28;20479;-78
2023/10/09 00:51:18;;;;;;;25.25;13.13;;;16.10;98.70;;;;;;5059048;28;20084;-78
2023/10/09 00:53:53;;;;;;;26.27;12.40;;;16.10;98.60;;;;;;5058664;28;20033;-78
2023/10/09 00:59:13;;;;;;;26.15;12.65;;;16.10;98.60;;;;;;5059517;28;20037;-78
2023/10/09 01:01:40;;;;;;;27.15;12.65;;;16.20;98.60;;;;;;5060617;28;20450;-78
2023/10/09 01:04:15;;;;;;;26.77;13.05;;;16.10;98.60;;;;;;5042140;28;20070;-78
2023/10/09 01:06:47;;;;;;;22.77;12.30;;;16.10;98.60;;;;;;5043126;28;20056;-78
2023/10/09 01:09:14;;;;;;;27.00;13.35;;;16.20;98.50;;;;;;5042129;28;20048;-78
2023/10/09 01:12:03;;;;;;;24.25;12.30;;;16.20;98.50;;;;;;5058314;28;20035;-77
2023/10/09 01:14:31;;;;;;;25.45;12.95;;;16.20;98.50;;;;;;5061378;28;20093;-77
2023/10/09 01:16:57;;;;;;;24.50;12.65;;;16.10;98.70;;;;;;5058272;28;20052;-78
2023/10/09 01:19:30;;;;;;;25.83;12.80;;;16.10;98.70;;;;;;5075816;28;20033;-78
2023/10/09 01:22:16;;;;;;;28.00;13.00;;;16.10;98.60;;;;;;5042523;28;20041;-78
2023/10/09 01:24:43;;;;;;;24.02;12.32;;;16.10;98.80;;;;;;5058003;28;20021;-78
2023/10/09 01:27:14;;;;;;;23.45;12.77;;;16.10;98.70;;;;;;5057996;28;20025;-77
2023/10/09 01:29:45;;;;;;;25.02;13.27;;;16.10;98.70;;;;;;5042446;28;20025;-77
2023/10/09 01:32:19;;;;;;;24.38;12.57;;;16.10;98.70;;;;;;5058007;28;20396;-77
2023/10/09 01:34:49;;;;;;;23.98;12.40;;;16.10;98.60;;;;;;5059144;28;20021;-77
2023/10/09 01:37:22;;;;;;;25.05;13.18;;;16.10;98.60;;;;;;5075624;28;20083;-77
2023/10/09 01:39:59;;;;;;;24.70;12.60;;;16.10;98.60;;;;;;5058489;28;20054;-78
2023/10/09 01:42:34;;;;;;;24.90;13.10;;;16.10;98.60;;;;;;5041428;28;20446;-77
2023/10/09 01:45:27;;;;;;;22.83;12.60;;;16.10;98.70;;;;;;5042393;28;20055;-77
2023/10/09 01:47:56;;;;;;;26.83;13.00;;;16.10;98.70;;;;;;5061785;28;20388;-78
2023/10/09 01:50:30;;;;;;;28.20;13.25;;;16.10;98.80;;;;;;5041563;28;20025;-77
2023/10/09 01:52:56;;;;;;;25.85;13.85;;;16.10;98.90;;;;;;5074899;28;20025;-78
2023/10/09 01:55:55;;;;;;;26.38;14.35;;;16.10;98.90;;;;;;5057515;28;20032;-78
2023/10/09 01:58:24;;;;;;;22.42;13.02;;;16.10;98.90;;;;;;5056759;28;20029;-78
2023/10/09 02:01:02;;;;;;;23.40;13.40;;;16.10;98.90;;;;;;5057487;28;20025;-77
2023/10/09 02:03:29;;;;;;;26.98;13.15;;;16.10;98.90;;;;;;5057230;28;20025;-78
2023/10/09 02:06:02;;;;;;;22.63;12.93;;;16.10;98.80;;;;;;5057355;28;20020;-78
2023/10/09 02:08:29;;;;;;;22.85;13.07;;;16.10;98.70;;;;;;5074926;28;20017;-78
2023/10/09 02:10:56;;;;;;;24.30;13.32;;;16.10;98.70;;;;;;5057163;28;20216;-78
2023/10/09 02:13:29;;;;;;;26.92;13.05;;;16.20;98.70;;;;;;5074812;28;20502;-78
2023/10/09 02:15:59;;;;;;;25.70;13.30;;;16.20;98.70;;;;;;5057180;28;20025;-78
2023/10/09 02:18:26;;;;;;;25.83;13.48;;;16.20;98.60;;;;;;5057091;28;20025;-77
2023/10/09 02:21:12;;;;;;;23.48;13.43;;;16.20;98.60;;;;;;5057339;28;20021;-78
2023/10/09 02:23:41;;;;;;;24.33;12.20;;;16.20;98.60;;;;;;5056881;28;20056;-78
2023/10/09 02:26:08;;;;;;;24.52;12.77;;;16.20;98.60;;;;;;5057407;28;20021;-77
2023/10/09 02:28:35;;;;;;;23.48;12.07;;;16.20;98.60;;;;;;5057283;28;20017;-78
2023/10/09 02:31:11;;;;;;;22.55;13.07;;;16.20;98.60;;;;;;5056798;28;20085;-78
2023/10/09 02:33:39;;;;;;;23.63;12.45;;;16.20;98.70;;;;;;5056737;28;20045;-78
2023/10/09 02:36:05;;;;;;;25.33;13.48;;;16.20;98.60;;;;;;5040392;28;20025;-77
2023/10/09 02:38:40;;;;;;;22.25;12.52;;;16.30;98.60;;;;;;5056676;28;20048;-77
2023/10/09 02:43:40;;;;;;;22.98;12.25;;;16.30;98.60;;;;;;5074212;28;20083;-77
2023/10/09 02:46:28;;;;;;;23.48;12.52;;;16.30;98.50;;;;;;5056620;28;20055;-78
2023/10/09 02:48:58;;;;;;;23.60;12.60;;;16.30;98.50;;;;;;5056578;28;20097;-77
2023/10/09 02:53:56;;;;;;;22.75;12.77;;;16.30;98.70;;;;;;5074093;28;20431;-78
2023/10/09 02:56:25;;;;;;;23.80;12.43;;;16.30;98.60;;;;;;5074131;28;20021;-78
2023/10/09 02:58:51;;;;;;;20.27;11.95;;;16.30;98.70;;;;;;5073921;28;20073;-77
2023/10/09 03:01:17;;;;;;;24.80;13.10;;;16.20;98.60;;;;;;5039821;28;20036;-78
2023/10/09 03:03:47;;;;;;;23.92;12.93;;;16.30;98.60;;;;;;5056079;28;20033;-77
2023/10/09 03:06:23;;;;;;;25.55;12.88;;;16.30;98.60;;;;;;5039980;28;20021;-78
2023/10/09 03:08:48;;;;;;;23.95;13.55;;;16.30;98.50;;;;;;5056207;28;20029;-78
2023/10/09 03:11:14;;;;;;;23.88;12.20;;;16.40;98.40;;;;;;5056200;28;20032;-77
2023/10/09 03:13:44;;;;;;;24.00;12.77;;;16.40;98.30;;;;;;5039487;28;20033;-78
2023/10/09 03:16:15;;;;;;;22.88;12.70;;;16.40;98.40;;;;;;5073644;28;20025;-78
2023/10/09 03:18:41;;;;;;;25.50;13.02;;;16.30;98.40;;;;;;5056055;28;20067;-77
2023/10/09 03:21:08;;;;;;;22.77;13.65;;;16.30;99.00;;;;;;5055956;28;20036;-77
2023/10/09 03:23:34;;;;;;;26.85;13.00;;;16.30;98.60;;;;;;5056149;28;20029;-78
2023/10/09 03:26:00;;;;;;;27.38;13.05;;;16.30;98.50;;;;;;5039283;28;20025;-77
2023/10/09 03:28:26;;;;;;;25.50;13.52;;;16.30;99.00;;;;;;5039238;28;20043;-77
2023/10/09 03:30:52;;;;;;;23.25;13.43;;;16.30;98.60;;;;;;5039387;28;20054;-78
2023/10/09 03:33:18;;;;;;;21.00;12.05;;;16.30;98.60;;;;;;5055999;28;20021;-77
2023/10/09 03:35:44;;;;;;;26.10;13.35;;;16.30;98.70;;;;;;5055706;28;20043;-77
2023/10/09 03:38:16;;;;;;;23.92;12.18;;;16.30;98.70;;;;;;5055863;28;20036;-78
2023/10/09 03:40:48;;;;;;;24.95;13.98;;;16.30;98.60;;;;;;5039793;28;20049;-78
2023/10/09 03:43:14;;;;;;;;;;;16.30;98.60;;;;;;5073795;28;20021;-78
2023/10/09 03:46:20;;;;;;;22.05;12.50;;;16.30;98.70;;;;;;5055572;28;19911;-78
2023/10/09 03:48:33;;;;;;;23.30;12.48;;;16.20;98.70;;;;;;5068210;28;20044;-78
2023/10/09 03:51:08;;;;;;;24.75;13.25;;;16.20;98.80;;;;;;5055811;28;20028;-78
2023/10/09 03:53:42;;;;;;;26.92;12.43;;;16.30;98.80;;;;;;5040461;28;20025;-77
2023/10/09 03:56:12;;;;;;;24.60;12.48;;;16.30;98.70;;;;;;5055533;28;20044;-78
2023/10/09 03:58:42;;;;;;;23.75;13.32;;;16.30;98.60;;;;;;5073254;28;20077;-77
2023/10/09 04:01:28;;;;;;;22.38;12.85;;;16.30;98.70;;;;;;5039725;28;20029;-78
2023/10/09 04:04:01;;;;;;;24.80;13.13;;;16.30;98.70;;;;;;5039267;28;20045;-78
2023/10/09 04:06:32;;;;;;;20.70;12.63;;;16.30;98.70;;;;;;5055393;28;20021;-78
2023/10/09 04:12:12;;;;;;;23.95;12.30;;;16.30;98.70;;;;;;5057257;28;20087;-77
2023/10/09 04:14:50;;;;;;;22.65;12.50;;;16.30;98.70;;;;;;5058996;28;20056;-78
2023/10/09 04:20:47;;;;;;;21.13;12.30;;;16.30;98.50;;;;;;5060345;28;20040;-77
2023/10/09 04:22:42;;;;;;;21.70;11.65;;;16.40;98.50;;;;;;5062054;28;20037;-77
2023/10/09 04:25:14;;;;;;;23.65;12.00;;;16.30;98.70;;;;;;5059201;28;20092;-77
2023/10/09 04:27:41;;;;;;;23.92;12.40;;;16.30;98.70;;;;;;5043635;28;20021;-78
2023/10/09 04:30:07;;;;;;;22.15;12.50;;;16.30;98.60;;;;;;5059037;28;20074;-78
2023/10/09 04:32:34;;;;;;;22.38;12.45;;;16.40;98.50;;;;;;5059131;28;20062;-77
2023/10/09 04:37:52;;;;;;;22.88;12.60;;;16.40;98.30;;;;;;5061917;28;20043;-77
2023/10/09 04:43:06;;;;;;;22.92;12.23;;;16.50;98.20;;;;;;5076674;28;20036;-77
2023/10/09 04:48:10;;;;;;;26.58;12.73;;;16.60;98.00;;;;;;5059450;28;20035;-78
2023/10/09 04:50:45;;;;;;;26.85;13.05;;;16.60;98.00;;;;;;5058686;28;20033;-77
2023/10/09 04:55:44;;;;;;;24.27;13.30;;;16.70;97.90;;;;;;5059259;28;20079;-78
2023/10/09 04:58:23;;;;;;;23.08;12.57;;;16.70;97.80;;;;;;5042808;28;20025;-78
2023/10/09 05:01:02;;;;;;;23.35;12.98;;;16.60;97.80;;;;;;5060651;28;20028;-78
2023/10/09 05:03:30;;;;;;;23.33;12.57;;;16.60;97.90;;;;;;5058398;28;20029;-78
2023/10/09 05:05:59;;;;;;;22.60;13.10;;;16.50;98.00;;;;;;5042137;28;20025;-78
2023/10/09 05:16:25;;;;;;;20.88;12.88;;;16.50;98.10;;;;;;5052390;28;20033;-78
2023/10/09 05:19:06;;;;;;;23.83;12.68;;;16.50;98.20;;;;;;5058177;28;20022;-78
2023/10/09 05:21:44;;;;;;;21.58;12.85;;;16.50;98.20;;;;;;5075739;28;20056;-78
2023/10/09 05:29:19;;;;;;;21.88;12.73;;;16.50;98.40;;;;;;5059058;28;20036;-78
2023/10/09 05:32:27;;;;;;;28.20;12.75;;;16.50;98.30;;;;;;5075684;28;20017;-78
2023/10/09 05:37:25;;;;;;;23.52;12.50;;;16.50;98.40;;;;;;5075647;28;20037;-77
2023/10/09 05:42:42;;;;;;;26.58;13.07;;;16.50;98.30;;;;;;5058577;28;20033;-77
2023/10/09 05:47:53;;;;;;;23.73;13.05;;;16.50;98.30;;;;;;5058276;28;20037;-78
2023/10/09 05:51:10;;;;;;;24.80;12.20;;;16.50;98.30;;;;;;5057667;28;20122;-78
2023/10/09 06:04:33;;;;;;;23.80;12.90;;;16.40;98.60;;;;;;5059744;28;20056;-78
2023/10/09 06:07:11;;;;;;;25.15;12.57;;;16.40;98.60;;;;;;5042341;28;20024;-78
2023/10/09 06:12:33;;;;;;;22.80;12.05;;;16.50;98.60;;;;;;5075004;28;20047;-78
2023/10/09 06:15:19;;;;;;;22.45;13.52;;;16.40;98.70;;;;;;5074815;28;20032;-78
2023/10/09 06:17:50;;;;;;;23.70;13.07;;;16.40;98.80;;;;;;5043569;28;20029;-78
2023/10/09 06:20:39;;;;;;;26.70;13.13;;;16.40;98.80;;;;;;5057855;28;20038;-78
2023/10/09 06:23:16;;;;;;;24.23;12.52;;;16.40;99.00;;;;;;5043670;28;20036;-78
2023/10/09 06:25:51;;;;;;;24.05;13.32;;;16.40;98.90;;;;;;5042259;28;20025;-78
2023/10/09 06:28:18;;;;;;;21.50;12.20;;;16.40;98.90;;;;;;5041470;28;20053;-78
2023/10/09 06:30:47;;;;;;;21.23;12.65;;;16.40;99.00;;;;;;5057335;28;20056;-77
2023/10/09 06:33:19;;;;;;;26.00;13.50;;;16.40;99.00;;;;;;5057143;28;20480;-78
2023/10/09 06:35:53;;;;;;;23.55;12.93;;;16.40;99.00;;;;;;5040969;28;20029;-78
2023/10/09 06:38:22;;;;;;;26.13;13.38;;;16.50;98.90;;;;;;5041061;28;20028;-78
2023/10/09 06:43:26;;;;;;;27.35;13.23;;;16.60;98.80;;;;;;5074290;28;20067;-78
2023/10/09 06:48:44;;;;;;;22.95;12.88;;;16.60;98.90;;;;;;5074404;28;20036;-78
2023/10/09 06:59:15;;;;;;;23.55;12.23;;;16.50;99.20;;;;;;5074085;28;20037;-77
2023/10/09 07:01:44;;;;;;;23.55;12.60;;;16.50;99.10;;;;;;5056197;28;20031;-77
2023/10/09 07:04:18;;;;;;;26.17;13.43;;;16.60;99.10;;;;;;5056213;28;20492;-78
2023/10/09 07:06:48;;;;;;;22.75;12.98;;;16.60;99.10;;;;;;5057665;28;20080;-78
2023/10/09 07:17:15;;;;;;;25.75;13.70;;;16.60;99.10;;;;;;5045099;28;20029;-78
2023/10/09 07:24:57;;;;;;;24.52;13.43;;;16.60;99.40;;;;;;5057463;28;20040;-78
2023/10/09 07:27:43;;;;;;;29.15;14.90;;;16.60;99.30;;;;;;5040394;28;20032;-78
2023/10/09 07:35:48;;;;;;;25.92;13.77;;;16.80;99.00;;;;;;5073216;28;20029;-78
2023/10/09 07:38:20;;;;;;;25.60;13.45;;;16.80;99.00;;;;;;5056042;28;20024;-77
2023/10/09 07:41:33;;;;;;;27.85;14.13;;;16.80;98.90;;;;;;5055448;28;20064;-77
2023/10/09 07:43:45;;;;;;;26.95;14.05;;;16.80;98.90;;;;;;5072975;28;20041;-78
2023/10/09 07:46:32;;;;;;;29.38;13.88;;;16.90;99.30;;;;;;5055770;28;20032;-78
2023/10/09 07:49:09;;;;;;;24.30;14.25;;;16.90;98.90;;;;;;5055859;28;20033;-77
2023/10/09 07:51:37;;;;;;;28.83;14.02;;;16.80;98.80;;;;;;5055783;28;20029;-77
2023/10/09 07:54:09;;;;;;;28.38;13.95;;;16.90;98.80;;;;;;5055656;28;20039;-78
2023/10/09 07:56:45;;;;;;;;;;;16.90;98.90;;;;;;5055992;28;20028;-78
2023/10/09 07:59:11;;;;;;;28.80;13.52;;;16.90;99.10;;;;;;5055503;28;19912;-78
2023/10/09 08:02:02;;;;;;;28.08;13.68;;;16.80;99.20;;;;;;5072954;28;20025;-78
2023/10/09 08:07:19;;;;;;;31.13;14.82;;;16.80;99.20;;;;;;5073294;28;20025;-78
2023/10/09 08:11:38;;;;;;;26.70;14.77;;;16.80;99.30;;;;;;5073189;28;20031;-78
2023/10/09 08:17:53;;;;;;;29.67;15.00;;;16.80;99.60;;;;;;5073007;28;20067;-78
2023/10/09 08:23:33;;;;;;;30.73;15.57;;;16.80;99.80;;;;;;5058117;28;20031;-77
2023/10/09 08:26:14;;;;;;;32.03;17.35;;;16.90;99.70;;;;;;5057030;28;20025;-78
2023/10/09 08:28:45;;;;;;;31.35;15.18;;;17.00;99.70;;;;;;5072841;28;20047;-77
2023/10/09 08:34:00;;;;;;;26.60;14.77;;;16.90;99.90;;;;;;5058046;28;20059;-78
2023/10/09 08:36:36;;;;;;;26.58;14.93;;;17.00;99.90;;;;;;5055192;28;20039;-78
2023/10/09 08:39:25;;;;;;;27.73;14.00;;;17.00;99.80;;;;;;5039770;28;20036;-78
2023/10/09 08:41:57;;;;;;;28.27;14.77;;;17.00;99.50;;;;;;5054858;28;20045;-77
2023/10/09 08:44:26;;;;;;;29.05;14.32;;;17.10;99.40;;;;;;5039590;28;20017;-78
2023/10/09 08:46:54;;;;;;;27.00;14.57;;;17.20;99.30;;;;;;5055044;28;20039;-78
2023/10/09 08:49:21;;;;;;;31.42;14.23;;;17.30;99.20;;;;;;5038580;28;20083;-78
2023/10/09 08:51:48;;;;;;;30.30;14.90;;;17.40;98.90;;;;;;5072549;28;20025;-78
2023/10/09 08:54:14;;;;;;;29.27;15.40;;;17.40;98.60;;;;;;5038608;28;20056;-78
2023/10/09 08:56:49;;;;;;;27.02;13.82;;;17.50;98.70;;;;;;5072594;28;20047;-77
2023/10/09 08:59:18;;;;;;;27.67;14.02;;;17.40;98.30;;;;;;5055007;28;20040;-78
2023/10/09 09:01:51;;;;;;;26.27;14.23;;;17.50;98.40;;;;;;5072421;28;20017;-78
2023/10/09 09:04:40;;;;;;;27.17;14.15;;;17.50;98.20;;;;;;5042675;28;20050;-77
2023/10/09 09:07:22;;;;;;;26.98;14.52;;;17.50;98.10;;;;;;5058442;28;20017;-77
2023/10/09 09:10:03;;;;;;;27.20;15.50;;;17.60;98.10;;;;;;5076112;28;20476;-78
2023/10/09 09:12:37;;;;;;;26.38;15.38;;;17.70;98.00;;;;;;5043156;28;20032;-78
2023/10/09 09:15:04;;;;;;;26.83;14.73;;;17.70;98.00;;;;;;5042971;28;20025;-77
2023/10/09 09:17:32;;;;;;;30.58;15.95;;;17.80;97.80;;;;;;5058394;28;20029;-78
2023/10/09 09:19:58;;;;;;;29.73;15.88;;;17.90;97.40;;;;;;5058254;28;20023;-77
2023/10/09 09:22:26;;;;;;;29.98;15.38;;;17.90;97.40;;;;;;5058289;28;20025;-78
2023/10/09 09:25:09;;;;;;;30.20;15.90;;;17.90;97.40;;;;;;5075740;28;20021;-78
2023/10/09 09:27:54;;;;;;;32.53;16.67;;;18.00;97.50;;;;;;5058288;28;20024;-78
2023/10/09 09:30:34;;;;;;;25.15;14.90;;;18.00;97.50;;;;;;5059356;28;20025;-77
2023/10/09 09:33:30;;;;;;;28.17;15.43;;;17.90;97.20;;;;;;5075815;28;20032;-77
2023/10/09 09:36:03;;;;;;;25.67;14.13;;;18.00;97.10;;;;;;5057890;28;20029;-78
2023/10/09 09:38:49;;;;;;;27.00;15.40;;;18.00;97.30;;;;;;5058094;28;20021;-77
2023/10/09 09:41:25;;;;;;;30.02;16.38;;;18.10;97.20;;;;;;5075317;28;20096;-78
2023/10/09 09:44:00;;;;;;;26.33;16.08;;;18.10;97.20;;;;;;5059337;28;20502;-77
2023/10/09 09:46:34;;;;;;;28.23;15.88;;;18.30;97.30;;;;;;5057649;28;20017;-78
2023/10/09 09:49:05;;;;;;;28.45;17.17;;;18.30;97.20;;;;;;5057670;28;20089;-77
2023/10/09 09:51:34;;;;;;;29.40;15.85;;;18.40;97.10;;;;;;5057953;28;20032;-77
2023/10/09 09:54:09;;;;;;;25.48;14.73;;;18.50;97.10;;;;;;5041201;28;20021;-78
2023/10/09 09:56:38;;;;;;;28.02;15.13;;;18.50;96.90;;;;;;5042061;28;20105;-77
2023/10/09 09:59:07;;;;;;;27.15;15.73;;;18.60;96.70;;;;;;5075196;28;20025;-78
2023/10/09 10:01:36;;;;;;;31.50;15.07;;;18.70;96.80;;;;;;5041131;28;20031;-78
2023/10/09 10:04:11;;;;;;;28.67;14.85;;;18.70;96.70;;;;;;5075040;28;20021;-77
2023/10/09 10:06:39;;;;;;;24.77;14.32;;;18.70;96.40;;;;;;5057261;28;20025;-77
2023/10/09 10:09:07;;;;;;;25.02;14.18;;;18.80;96.30;;;;;;5041041;28;20123;-77
2023/10/09 10:11:48;;;;;;;23.45;13.63;;;18.90;96.40;;;;;;5040923;28;20032;-77
2023/10/09 10:14:28;;;;;;;24.42;14.50;;;18.90;96.30;;;;;;5057992;28;20086;-78
2023/10/09 10:17:38;;;;;;;22.40;13.05;;;18.90;96.30;;;;;;5042341;28;20021;-78
2023/10/09 10:20:00;;;;;;;27.38;14.73;;;19.00;96.00;;;;;;5070652;28;20041;-78
2023/10/09 10:22:30;;;;;;;25.70;14.10;;;19.10;95.90;;;;;;5056915;28;20021;-77
2023/10/09 10:25:02;;;;;;;28.13;14.27;;;19.10;95.70;;;;;;5040506;28;20096;-77
2023/10/09 10:27:44;;;;;;;23.05;13.27;;;19.10;95.60;;;;;;5074618;28;20040;-77
2023/10/09 10:30:13;;;;;;;24.65;13.07;;;19.10;95.60;;;;;;5056941;28;20045;-77
2023/10/09 10:33:09;;;;;;;24.33;14.02;;;19.20;95.60;;;;;;5056814;28;20056;-77
2023/10/09 10:38:24;;;;;;;25.55;14.85;;;19.30;95.60;;;;;;5058175;28;20029;-77
2023/10/09 10:40:57;;;;;;;27.60;14.00;;;19.30;95.30;;;;;;5040008;28;20057;-77
2023/10/09 10:46:23;;;;;;;22.65;13.55;;;19.40;95.40;;;;;;5059741;28;20036;-76
2023/10/09 10:48:58;;;;;;;24.42;13.00;;;19.50;95.30;;;;;;5056536;28;20089;-77
2023/10/09 10:51:34;;;;;;;25.42;13.38;;;19.50;95.40;;;;;;5056475;28;20021;-77
2023/10/09 10:54:26;;;;;;;23.08;13.13;;;19.60;95.30;;;;;;5074122;28;20032;-77
2023/10/09 10:56:48;;;;;;;25.17;13.52;;;19.60;95.20;;;;;;5073866;28;20044;-77
2023/10/09 10:59:13;;;;;;;23.83;13.18;;;19.70;95.20;;;;;;5073977;28;20036;-77
2023/10/09 11:02:13;;;;;;;22.08;12.48;;;19.70;95.20;;;;;;5039711;28;20029;-78
2023/10/09 11:04:41;;;;;;;23.08;13.73;;;19.80;95.20;;;;;;5056327;28;20021;-77
2023/10/09 11:07:26;;;;;;;23.63;13.23;;;19.90;95.00;;;;;;5056148;28;20059;-77
2023/10/09 11:12:44;;;;;;;25.05;13.05;;;20.00;94.70;;;;;;5058024;28;20044;-77
2023/10/09 11:18:08;;;;;;;21.33;10.95;;;20.10;94.40;;;;;;5073789;28;20067;-77
2023/10/09 11:20:36;;;;;;;19.23;9.65;;;20.20;94.20;;;;;;5056035;28;20096;-77
2023/10/09 11:25:33;;;;;;;16.98;8.95;;;20.30;94.20;;;;;;5073003;28;20029;-77
2023/10/09 11:28:15;;;;;;;17.10;9.25;;;20.30;94.00;;;;;;5073492;28;20032;-76
2023/10/09 11:30:41;;;;;;;20.55;9.05;;;20.40;93.70;;;;;;5055921;28;20025;-76
2023/10/09 11:33:14;;;;;;;17.77;9.68;;;20.40;93.60;;;;;;5055751;28;20029;-77
2023/10/09 11:35:42;;;;;;;16.52;8.88;;;20.40;93.60;;;;;;5072510;28;20029;-77
2023/10/09 11:38:25;;;;;;;18.42;9.02;;;20.50;93.60;;;;;;5072416;28;20025;-77
2023/10/09 11:43:53;;;;;;;18.02;8.82;;;20.50;93.40;;;;;;5073405;28;20040;-77
2023/10/09 11:46:12;;;;;;;15.98;8.43;;;20.60;93.40;;;;;;5070354;28;20025;-77
2023/10/09 11:49:13;;;;;;;19.10;8.98;;;20.50;93.40;;;;;;5073395;28;20088;-77
2023/10/09 11:51:32;;;;;;;14.38;8.30;;;20.60;93.40;;;;;;5059641;28;20025;-77
2023/10/09 11:53:58;;;;;;;18.80;9.45;;;20.60;93.40;;;;;;5055490;28;20050;-77
2023/10/09 11:56:27;;;;;;;16.88;9.38;;;20.60;93.40;;;;;;5072219;28;20037;-77
2023/10/09 11:58:54;;;;;;;16.92;8.65;;;20.60;93.40;;;;;;5073091;28;20067;-77
2023/10/09 12:01:21;;;;;;;19.23;9.43;;;20.60;93.40;;;;;;5073126;28;20078;-77
2023/10/09 12:03:49;;;;;;;17.17;9.50;;;20.60;93.50;;;;;;5055323;28;20029;-77
2023/10/09 12:06:18;;;;;;;20.45;9.20;;;20.60;93.40;;;;;;5073171;28;20544;-77
2023/10/09 12:08:48;;;;;;;18.67;8.65;;;20.60;93.50;;;;;;5073068;28;20056;-77
2023/10/09 12:11:15;;;;;;;15.73;8.32;;;20.60;93.40;;;;;;5072155;28;20025;-77
2023/10/09 12:13:45;;;;;;;13.75;7.82;;;20.60;93.30;;;;;;5055333;28;20049;-77
2023/10/09 12:16:11;;;;;;;14.13;8.32;;;20.60;93.20;;;;;;5055615;28;20028;-77
2023/10/09 12:18:39;;;;;;;15.07;7.72;;;20.60;93.30;;;;;;5055438;28;20060;-77
2023/10/09 12:21:06;;;;;;;13.68;7.38;;;20.60;93.30;;;;;;5055268;28;20059;-77
2023/10/09 12:23:38;;;;;;;14.07;7.50;;;20.70;93.30;;;;;;5038721;28;20029;-77
2023/10/09 12:26:04;;;;;;;14.82;8.02;;;20.70;93.20;;;;;;5072965;28;20029;-78
2023/10/09 12:28:32;;;;;;;15.85;7.90;;;20.70;93.20;;;;;;5055243;28;20024;-78
2023/10/09 12:31:01;;;;;;;16.00;8.45;;;20.70;93.20;;;;;;5055188;28;20022;-77
2023/10/09 12:33:28;;;;;;;15.90;8.43;;;20.80;93.10;;;;;;5055179;28;20067;-77
2023/10/09 12:35:59;;;;;;;14.60;8.82;;;20.70;93.00;;;;;;5055058;28;20535;-77
2023/10/09 12:38:31;;;;;;;20.75;8.68;;;20.70;93.10;;;;;;5057243;28;20021;-77
2023/10/09 12:43:52;;;;;;;15.52;8.48;;;20.70;93.20;;;;;;5076703;28;20091;-77
2023/10/09 12:46:22;;;;;;;15.18;8.40;;;20.70;93.30;;;;;;5042383;28;20033;-77
2023/10/09 12:48:54;;;;;;;15.27;8.25;;;20.80;93.50;;;;;;5058883;28;20048;-77
2023/10/09 12:51:20;;;;;;;16.77;8.93;;;20.80;93.30;;;;;;5058852;28;20089;-78
2023/10/09 12:53:50;;;;;;;19.60;8.18;;;20.90;93.40;;;;;;5058669;28;20021;-77
2023/10/09 12:56:18;;;;;;;13.88;8.77;;;20.90;93.30;;;;;;5058705;28;20033;-77
2023/10/09 12:58:52;;;;;;;16.45;8.50;;;21.00;93.20;;;;;;5075382;28;20017;-77
2023/10/09 13:01:20;;;;;;;17.23;8.52;;;21.10;93.00;;;;;;5043321;28;20049;-77
2023/10/09 13:03:49;;;;;;;18.65;8.40;;;21.10;92.80;;;;;;5058467;28;20025;-77
2023/10/09 13:06:23;;;;;;;16.27;8.88;;;21.20;92.70;;;;;;5075276;28;20044;-77
2023/10/09 13:08:49;;;;;;;18.33;7.93;;;21.20;92.60;;;;;;5058507;28;20023;-77
2023/10/09 13:11:18;;;;;;;16.40;9.18;;;21.20;92.50;;;;;;5058331;28;20025;-77
2023/10/09 13:13:51;;;;;;;17.70;7.63;;;21.20;92.50;;;;;;5075165;28;20036;-77
2023/10/09 13:16:24;;;;;;;15.30;7.85;;;21.30;92.70;;;;;;5076020;28;20098;-77
2023/10/09 13:18:54;;;;;;;14.02;7.70;;;21.30;92.70;;;;;;5058315;28;20035;-77
2023/10/09 13:21:26;;;;;;;16.52;7.75;;;21.30;92.50;;;;;;5058245;28;20036;-77
2023/10/09 13:23:54;;;;;;;14.97;7.93;;;21.40;92.50;;;;;;5058133;28;20017;-77
2023/10/09 13:26:27;;;;;;;17.38;7.47;;;21.40;92.70;;;;;;5058157;28;20067;-77
2023/10/09 13:28:54;;;;;;;15.70;8.10;;;21.50;92.60;;;;;;5074995;28;20048;-77
2023/10/09 13:31:21;;;;;;;13.77;7.57;;;21.60;92.30;;;;;;5057976;28;20028;-77
2023/10/09 13:33:47;;;;;;;16.02;7.72;;;21.70;92.20;;;;;;5075569;28;20025;-77
2023/10/09 13:36:19;;;;;;;12.75;6.80;;;21.80;92.30;;;;;;5058011;28;20025;-77
2023/10/09 13:38:47;;;;;;;13.80;6.63;;;21.90;92.00;;;;;;5057952;28;20032;-77
2023/10/09 13:41:13;;;;;;;13.10;7.18;;;21.90;92.00;;;;;;5057786;28;20052;-77
2023/10/09 13:43:43;;;;;;;13.13;6.60;;;21.90;91.50;;;;;;5057682;28;20092;-77
2023/10/09 13:46:11;;;;;;;15.05;7.43;;;22.00;91.30;;;;;;5074693;28;20025;-77
2023/10/09 13:48:41;;;;;;;16.02;6.05;;;22.20;91.20;;;;;;5074842;28;20032;-77
2023/10/09 13:51:09;;;;;;;11.57;6.38;;;22.70;91.30;;;;;;5075459;28;20021;-77
2023/10/09 13:53:44;;;;;;;14.25;6.63;;;22.80;90.80;;;;;;5057621;28;20067;-77
2023/10/09 13:56:19;;;;;;;15.73;6.80;;;22.70;90.60;;;;;;5075256;28;20046;-77
2023/10/09 13:58:50;;;;;;;14.25;6.80;;;22.60;90.60;;;;;;5057518;28;20075;-78
2023/10/09 14:01:26;;;;;;;18.00;7.00;;;22.50;90.80;;;;;;5057573;28;20032;-77
2023/10/09 14:03:56;;;;;;;14.32;7.18;;;22.40;90.80;;;;;;5074263;28;20029;-77
2023/10/09 14:06:33;;;;;;;13.60;6.63;;;22.40;90.60;;;;;;5057402;28;20033;-77
2023/10/09 14:09:09;;;;;;;14.15;6.72;;;22.40;90.70;;;;;;5057448;28;20017;-78
2023/10/09 14:11:39;;;;;;;12.73;6.85;;;22.40;90.70;;;;;;5057364;28;20017;-77
2023/10/09 14:14:09;;;;;;;10.73;6.75;;;22.30;90.70;;;;;;5075012;28;20021;-77
2023/10/09 14:16:37;;;;;;;11.27;6.57;;;22.20;90.50;;;;;;5074119;28;20052;-77
2023/10/09 14:19:07;;;;;;;15.02;5.88;;;22.20;90.60;;;;;;5057229;28;20078;-77
2023/10/09 14:21:37;;;;;;;11.73;6.00;;;22.10;90.60;;;;;;5074830;28;20469;-77
2023/10/09 14:24:15;;;;;;;13.80;6.03;;;22.00;90.60;;;;;;5056974;28;20029;-77
2023/10/09 14:26:41;;;;;;;9.98;6.35;;;22.00;90.90;;;;;;5057053;28;20036;-77
2023/10/09 14:29:07;;;;;;;10.20;5.50;;;21.90;90.80;;;;;;5073643;28;20033;-77
2023/10/09 14:31:38;;;;;;;12.20;6.05;;;21.90;90.80;;;;;;5056930;28;20029;-77
2023/10/09 14:34:05;;;;;;;14.68;6.65;;;21.80;90.80;;;;;;5074504;28;20025;-77
2023/10/09 14:36:33;;;;;;;13.65;6.15;;;21.80;90.80;;;;;;5056766;28;20047;-77
2023/10/09 14:39:00;;;;;;;14.50;5.47;;;21.70;91.10;;;;;;5056745;28;20032;-77
2023/10/09 14:41:27;;;;;;;11.50;5.82;;;21.70;91.20;;;;;;5074138;28;20052;-77
2023/10/09 14:43:54;;;;;;;9.90;5.53;;;21.70;91.00;;;;;;5073543;28;20029;-77
2023/10/09 14:46:25;;;;;;;12.60;5.43;;;21.80;91.10;;;;;;5056539;28;20017;-77
2023/10/09 14:48:52;;;;;;;11.43;5.50;;;21.80;91.50;;;;;;5056514;28;20024;-77
2023/10/09 14:51:27;;;;;;;10.05;5.45;;;21.70;91.10;;;;;;5056721;28;20029;-77
2023/10/09 14:54:02;;;;;;;11.93;5.20;;;21.70;91.00;;;;;;5056645;28;20051;-77
2023/10/09 14:56:28;;;;;;;15.07;5.93;;;21.70;91.00;;;;;;5074251;28;20089;-77
2023/10/09 14:58:58;;;;;;;9.68;5.30;;;21.70;91.00;;;;;;5073160;28;20029;-77
2023/10/09 15:01:28;;;;;;;10.32;5.38;;;21.70;90.90;;;;;;5055626;28;20076;-77
2023/10/09 15:03:59;;;;;;;10.88;5.53;;;21.70;91.00;;;;;;5073102;28;20085;-77
2023/10/09 15:06:30;;;;;;;14.48;5.57;;;21.70;91.00;;;;;;5073079;28;20032;-77